createdAt,value
2023-02-19T00:04:59.742Z,5.60
2023-02-19T00:10:02.118Z,2.60
2023-02-19T00:15:09.326Z,3.30
2023-02-19T00:20:11.787Z,3.80
2023-02-19T00:25:14.418Z,3.70
2023-02-19T00:30:19.691Z,4.10
2023-02-19T00:35:25.057Z,5.90
2023-02-19T00:40:27.465Z,6.30
2023-02-19T00:45:29.734Z,6.00
2023-02-19T00:50:31.751Z,7.20
2023-02-19T00:55:33.854Z,8.60
2023-02-19T01:00:35.903Z,8.50
2023-02-19T01:05:38.041Z,9.00
2023-02-19T01:10:40.582Z,7.30
2023-02-19T01:15:43.897Z,7.70
2023-02-19T01:20:48.822Z,8.70
2023-02-19T01:25:51.753Z,6.00
2023-02-19T01:30:53.978Z,5.50
2023-02-19T01:35:59.930Z,4.30
2023-02-19T01:41:05.135Z,4.10
2023-02-19T01:46:07.262Z,4.00
2023-02-19T01:51:13.045Z,3.20
2023-02-19T01:56:17.426Z,3.30
2023-02-19T02:01:19.729Z,4.30
2023-02-19T02:06:33.232Z,4.10
2023-02-19T02:11:36.619Z,4.50
2023-02-19T02:16:54.949Z,5.30
2023-02-19T02:22:06.705Z,5.80
2023-02-19T02:27:23.117Z,7.90
2023-02-19T02:32:33.214Z,9.30
2023-02-19T02:37:39.011Z,9.50
2023-02-19T02:42:43.861Z,12.40
2023-02-19T02:47:56.517Z,13.10
2023-02-19T02:53:35.820Z,8.00
2023-02-19T02:58:45.689Z,7.00
2023-02-19T03:03:55.142Z,4.70
2023-02-19T03:09:09.540Z,5.00
2023-02-19T03:14:44.679Z,4.80
2023-02-19T03:19:52.911Z,4.70
2023-02-19T03:25:25.914Z,4.80
2023-02-19T03:30:33.890Z,5.40
2023-02-19T03:35:50.045Z,5.10
2023-02-19T03:41:14.558Z,5.60
2023-02-19T03:46:24.088Z,5.80
2023-02-19T03:51:45.147Z,5.40
2023-02-19T03:57:05.298Z,6.00
2023-02-19T04:02:37.145Z,6.10
2023-02-19T04:07:44.651Z,7.60
2023-02-19T04:13:00.193Z,6.50
2023-02-19T04:18:08.648Z,6.80
2023-02-19T04:23:16.912Z,6.80
2023-02-19T04:28:19.495Z,6.40
2023-02-19T04:33:22.104Z,6.90
2023-02-19T04:38:24.473Z,7.20
2023-02-19T04:43:29.742Z,6.10
2023-02-19T04:48:32.673Z,4.50
2023-02-19T04:53:36.437Z,4.00
2023-02-19T04:58:39.109Z,3.10
2023-02-19T05:03:41.732Z,3.30
2023-02-19T05:08:44.428Z,3.50
2023-02-19T05:13:46.619Z,3.20
2023-02-19T05:18:48.980Z,4.10
2023-02-19T05:23:51.253Z,3.40
2023-02-19T05:28:54.463Z,3.40
2023-02-19T05:33:56.958Z,4.90
2023-02-19T05:38:58.984Z,6.40
2023-02-19T05:44:01.405Z,5.70
2023-02-19T05:49:04.299Z,7.60
2023-02-19T05:54:06.347Z,10.40
2023-02-19T05:59:15.184Z,8.10
2023-02-19T06:04:19.275Z,9.30
2023-02-19T06:09:21.519Z,8.00
2023-02-19T06:14:23.597Z,9.40
2023-02-19T06:19:26.158Z,11.90
2023-02-19T06:24:28.247Z,12.80
2023-02-19T06:29:32.621Z,10.10
2023-02-19T06:34:36.234Z,10.60
2023-02-19T06:39:38.498Z,12.10
2023-02-19T06:44:41.716Z,12.30
2023-02-19T06:49:45.092Z,11.60
2023-02-19T06:54:47.506Z,9.40
2023-02-19T06:59:50.490Z,8.70
2023-02-19T07:04:52.698Z,7.90
2023-02-19T07:09:56.500Z,8.40
2023-02-19T07:15:01.644Z,10.30
2023-02-19T07:20:04.313Z,9.30
2023-02-19T07:25:07.098Z,10.70
2023-02-19T07:30:10.602Z,11.20
2023-02-19T07:35:13.174Z,11.30
2023-02-19T07:40:15.215Z,9.90
2023-02-19T07:45:17.903Z,9.70
2023-02-19T07:50:20.367Z,8.60
2023-02-19T07:55:25.342Z,9.40
2023-02-19T08:00:29.656Z,10.40
2023-02-19T08:05:38.504Z,10.70
2023-02-19T08:11:00.533Z,9.60
2023-02-19T08:16:15.982Z,8.70
2023-02-19T08:21:21.190Z,9.90
2023-02-19T08:26:23.841Z,11.20
2023-02-19T08:31:27.259Z,8.60
2023-02-19T08:36:30.407Z,8.40
2023-02-19T08:41:32.897Z,9.50
2023-02-19T08:46:35.046Z,10.00
2023-02-19T08:51:42.120Z,11.20
2023-02-19T08:56:44.511Z,4.70
2023-02-19T09:01:46.840Z,6.10
2023-02-19T09:06:49.210Z,7.20
2023-02-19T09:11:51.189Z,7.50
2023-02-19T09:16:53.644Z,6.80
2023-02-19T09:21:56.116Z,7.10
2023-02-19T09:27:01.100Z,6.70
2023-02-19T09:32:05.789Z,4.10
2023-02-19T09:37:08.663Z,3.80
2023-02-19T09:42:18.004Z,5.60
2023-02-19T09:47:29.556Z,5.10
2023-02-19T09:52:38.827Z,4.80
2023-02-19T09:57:43.630Z,3.80
2023-02-19T10:02:45.893Z,2.30
2023-02-19T10:07:51.287Z,2.70
2023-02-19T10:12:56.797Z,3.10
2023-02-19T10:17:59.044Z,3.80
2023-02-19T10:23:08.054Z,3.90
2023-02-19T10:28:23.337Z,3.20
2023-02-19T10:33:25.739Z,3.20
2023-02-19T10:38:38.412Z,2.70
2023-02-19T10:43:45.797Z,4.30
2023-02-19T10:49:00.621Z,4.30
2023-02-19T10:54:28.866Z,3.50
2023-02-19T10:59:58.238Z,2.10
2023-02-19T11:05:16.912Z,2.30
2023-02-19T11:10:39.959Z,1.90
2023-02-19T11:15:43.683Z,1.90
2023-02-19T11:21:00.972Z,2.50
2023-02-19T11:26:06.969Z,0.90
2023-02-19T11:31:23.557Z,1.40
2023-02-19T11:36:30.487Z,1.20
2023-02-19T11:41:58.562Z,1.60
2023-02-19T11:47:13.292Z,1.70
2023-02-19T11:52:29.057Z,1.80
2023-02-19T11:57:41.855Z,2.40
2023-02-19T12:03:06.400Z,2.60
2023-02-19T12:08:35.768Z,2.70
2023-02-19T12:13:59.438Z,3.70
2023-02-19T12:19:27.681Z,3.70
2023-02-19T12:25:06.252Z,2.40
2023-02-19T12:30:19.426Z,2.90
2023-02-19T12:35:43.182Z,3.40
2023-02-19T12:40:51.262Z,3.00
2023-02-19T12:45:58.999Z,1.60
2023-02-19T12:51:23.414Z,1.90
2023-02-19T12:56:53.705Z,1.80
2023-02-19T13:07:33.777Z,4.00
2023-02-19T13:12:44.901Z,3.40
2023-02-19T13:17:51.404Z,3.40
2023-02-19T13:23:41.022Z,1.70
2023-02-19T13:29:06.913Z,3.20
2023-02-19T13:34:22.641Z,5.00
2023-02-19T13:39:25.327Z,3.30
2023-02-19T13:44:31.058Z,4.40
2023-02-19T13:49:36.185Z,3.70
2023-02-19T13:54:42.652Z,4.30
2023-02-19T13:59:45.411Z,5.50
2023-02-19T14:04:51.844Z,3.80
2023-02-19T14:09:55.005Z,6.50
2023-02-19T14:15:41.593Z,5.80
2023-02-19T14:20:45.545Z,4.10
2023-02-19T14:26:01.286Z,3.90
2023-02-19T14:31:11.959Z,2.80
2023-02-19T14:36:20.483Z,4.10
2023-02-19T14:41:24.760Z,4.10
2023-02-19T14:46:43.318Z,2.50
2023-02-19T14:51:51.635Z,3.20
2023-02-19T14:56:54.826Z,4.40
2023-02-19T15:02:15.299Z,5.40
2023-02-19T15:07:34.751Z,4.50
2023-02-19T15:13:01.523Z,6.50
2023-02-19T15:18:05.612Z,5.00
2023-02-19T15:23:08.260Z,4.80
2023-02-19T15:28:26.541Z,3.80
2023-02-19T15:33:29.566Z,4.80
2023-02-19T15:38:33.890Z,4.50
2023-02-19T15:43:49.912Z,4.80
2023-02-19T15:49:02.454Z,3.80
2023-02-19T15:54:47.391Z,6.90
2023-02-19T16:00:13.464Z,6.70
2023-02-19T16:05:27.572Z,5.60
2023-02-19T16:10:32.695Z,5.50
2023-02-19T16:15:40.386Z,4.60
2023-02-19T16:20:47.881Z,5.00
2023-02-19T16:26:01.519Z,5.20
2023-02-19T16:31:05.106Z,8.50
2023-02-19T16:36:42.541Z,7.00
2023-02-19T16:41:47.554Z,9.30
2023-02-19T16:46:52.211Z,5.20
2023-02-19T16:51:54.687Z,9.50
2023-02-19T16:56:56.870Z,9.10
2023-02-19T17:02:05.590Z,6.20
2023-02-19T17:07:09.527Z,8.50
2023-02-19T17:12:14.396Z,11.60
2023-02-19T17:17:16.468Z,12.30
2023-02-19T17:22:19.236Z,11.10
2023-02-19T17:27:21.557Z,13.40
2023-02-19T17:32:23.608Z,9.90
2023-02-19T17:37:26.490Z,12.10
2023-02-19T17:42:28.272Z,10.90
2023-02-19T17:47:30.530Z,11.10
2023-02-19T17:52:33.672Z,10.80
2023-02-19T17:57:36.550Z,15.10
2023-02-19T18:02:39.429Z,12.90
2023-02-19T18:07:51.380Z,10.50
2023-02-19T18:12:55.945Z,12.00
2023-02-19T18:18:00.939Z,11.70
2023-02-19T18:23:02.990Z,12.70
2023-02-19T18:28:05.475Z,15.10
2023-02-19T18:33:10.894Z,14.90
2023-02-19T18:38:13.721Z,16.60
2023-02-19T18:43:16.820Z,19.10
2023-02-19T18:48:19.410Z,18.50
2023-02-19T18:53:22.105Z,20.90
2023-02-19T18:58:28.493Z,20.30
2023-02-19T19:03:32.445Z,18.30
2023-02-19T19:08:35.132Z,22.40
2023-02-19T19:13:37.917Z,23.90
2023-02-19T19:18:39.878Z,18.20
2023-02-19T19:23:42.617Z,17.50
2023-02-19T19:28:45.317Z,22.00
2023-02-19T19:33:48.584Z,20.50
2023-02-19T19:38:50.853Z,24.30
2023-02-19T19:43:52.861Z,26.60
2023-02-19T19:48:55.914Z,26.00
2023-02-19T19:53:58.419Z,22.50
2023-02-19T19:59:00.285Z,18.00
2023-02-19T20:04:08.363Z,16.10
2023-02-19T20:09:10.571Z,19.10
2023-02-19T20:14:13.965Z,20.20
2023-02-19T20:19:17.790Z,15.10
2023-02-19T20:24:24.598Z,24.60
2023-02-19T20:29:29.057Z,17.60
2023-02-19T20:34:31.719Z,21.90
2023-02-19T20:39:35.464Z,16.40
2023-02-19T20:44:37.840Z,17.30
2023-02-19T20:49:45.754Z,16.90
2023-02-19T20:54:48.225Z,17.30
2023-02-19T20:59:50.688Z,19.90
2023-02-19T21:04:52.723Z,25.40
2023-02-19T21:09:57.803Z,21.00
2023-02-19T21:15:05.230Z,24.00
2023-02-19T21:20:08.479Z,20.60
2023-02-19T21:25:10.850Z,24.30
2023-02-19T21:30:12.955Z,24.30
2023-02-19T21:35:15.279Z,21.50
2023-02-19T21:40:39.255Z,23.60
2023-02-19T21:45:43.132Z,22.00
2023-02-19T21:50:45.927Z,21.80
2023-02-19T21:55:58.139Z,20.20
2023-02-19T22:01:01.791Z,23.90
2023-02-19T22:06:04.907Z,19.30
2023-02-19T22:11:07.403Z,22.40
2023-02-19T22:16:09.904Z,26.80
2023-02-19T22:21:12.310Z,27.00
2023-02-19T22:26:18.737Z,24.20
2023-02-19T22:31:25.021Z,25.00
2023-02-19T22:36:31.172Z,28.00
2023-02-19T22:41:33.893Z,27.40
2023-02-19T22:46:36.429Z,28.20
2023-02-19T22:51:39.143Z,27.70
2023-02-19T22:56:41.594Z,26.50
2023-02-19T23:01:43.539Z,22.80
2023-02-19T23:06:45.955Z,25.30
2023-02-19T23:11:48.496Z,26.00
2023-02-19T23:16:50.783Z,27.20
2023-02-19T23:22:07.777Z,28.10
2023-02-19T23:27:10.195Z,31.60
2023-02-19T23:32:12.524Z,33.60
2023-02-19T23:37:15.123Z,34.00
2023-02-19T23:42:20.372Z,29.70
2023-02-19T23:47:45.676Z,28.50
2023-02-19T23:52:48.963Z,27.60
2023-02-19T23:57:53.256Z,21.20
